Time;durP1;ratioP1;P1;durP2;ratioP2;P2;SDS_P1;SDS_P2;PMS_P1;PMS_P2;Temp;Humidity;BMP_temperature;BMP_pressure;BME280_temperature;BME280_humidity;BME280_pressure;Samples;Min_cycle;Max_cycle;Signal;HPM_P1;HPM_P2
2024/03/22 00:03:41;;;;;;;8.70;3.38;;;22.50;49.90;;;;;;10320241;28;20161;-61
2024/03/22 00:08:43;;;;;;;6.15;3.28;;;22.50;49.80;;;;;;10320289;28;20125;-55
2024/03/22 00:13:45;;;;;;;7.38;3.67;;;22.40;49.80;;;;;;10314726;28;20153;-56
2024/03/22 00:18:47;;;;;;;6.22;3.17;;;22.40;49.70;;;;;;10321981;28;20536;-55
2024/03/22 00:23:49;;;;;;;6.50;3.40;;;22.40;49.60;;;;;;10313670;28;20133;-57
2024/03/22 00:28:51;;;;;;;7.05;3.13;;;22.40;49.50;;;;;;10326073;28;20662;-55
2024/03/22 00:33:54;;;;;;;8.02;3.05;;;22.40;49.40;;;;;;10318707;28;20157;-55
2024/03/22 00:38:55;;;;;;;7.13;3.50;;;22.20;49.50;;;;;;10324677;28;20125;-57
2024/03/22 00:43:57;;;;;;;5.25;2.95;;;22.10;49.70;;;;;;10320719;28;20137;-53
2024/03/22 00:49:00;;;;;;;6.05;3.03;;;22.30;49.20;;;;;;10319773;28;20066;-54
2024/03/22 00:54:02;;;;;;;5.43;2.83;;;22.20;49.20;;;;;;10319322;28;20935;-56
2024/03/22 00:59:03;;;;;;;5.18;2.97;;;22.30;49.00;;;;;;10316121;28;20129;-57
2024/03/22 01:04:08;;;;;;;6.20;3.10;;;22.30;48.90;;;;;;10311175;28;20145;-57
2024/03/22 01:09:10;;;;;;;6.50;3.00;;;22.20;49.20;;;;;;10322084;28;20137;-54
2024/03/22 01:14:12;;;;;;;5.15;2.85;;;22.20;48.90;;;;;;10311632;28;20061;-55
2024/03/22 01:19:17;;;;;;;6.35;3.15;;;22.00;49.00;;;;;;10313829;28;20592;-59
2024/03/22 01:24:19;;;;;;;5.57;2.85;;;22.10;48.90;;;;;;10315917;28;20046;-58
2024/03/22 01:29:21;;;;;;;5.05;2.58;;;22.20;48.50;;;;;;10310721;28;20560;-53
2024/03/22 01:34:24;;;;;;;5.75;2.92;;;21.90;49.00;;;;;;10315063;28;20662;-57
2024/03/22 01:39:26;;;;;;;4.63;2.80;;;21.90;48.80;;;;;;10312548;28;20156;-57
2024/03/22 01:44:31;;;;;;;6.20;2.90;;;21.90;48.90;;;;;;10313749;28;20042;-54
2024/03/22 01:49:34;;;;;;;4.90;2.85;;;21.90;48.80;;;;;;10313638;28;20052;-58
2024/03/22 01:54:36;;;;;;;5.72;2.80;;;21.70;49.40;;;;;;10313555;28;20208;-56
2024/03/22 01:59:38;;;;;;;4.75;2.55;;;21.70;49.20;;;;;;10312187;28;20504;-54
2024/03/22 02:04:41;;;;;;;3.35;2.53;;;21.50;49.40;;;;;;10315078;28;20129;-58
2024/03/22 02:09:42;;;;;;;3.45;2.40;;;21.50;49.50;;;;;;10311939;28;20058;-58
2024/03/22 02:14:44;;;;;;;2.90;2.20;;;21.60;49.20;;;;;;10306856;28;20133;-58
2024/03/22 02:19:47;;;;;;;5.57;2.70;;;21.70;48.80;;;;;;10308199;28;20051;-58
2024/03/22 02:24:50;;;;;;;6.03;2.83;;;21.60;49.00;;;;;;10311937;28;20046;-57
2024/03/22 02:29:52;;;;;;;4.22;2.50;;;21.50;49.00;;;;;;10313305;28;20070;-53
2024/03/22 02:34:53;;;;;;;4.57;2.50;;;21.40;49.30;;;;;;10308859;28;20142;-55
2024/03/22 02:39:56;;;;;;;4.07;2.70;;;21.40;49.20;;;;;;10307724;28;20049;-55
2024/03/22 02:44:58;;;;;;;4.28;3.00;;;21.40;49.00;;;;;;10315383;28;20057;-55
2024/03/22 02:49:59;;;;;;;4.25;2.65;;;21.30;49.20;;;;;;10312178;28;20084;-56
2024/03/22 02:55:02;;;;;;;4.88;3.28;;;21.40;49.60;;;;;;10317769;28;20054;-55
2024/03/22 03:00:05;;;;;;;5.40;2.67;;;21.20;49.40;;;;;;10312376;28;20125;-55
2024/03/22 03:05:07;;;;;;;4.03;2.83;;;21.10;49.60;;;;;;10322593;28;20478;-53
2024/03/22 03:10:10;;;;;;;5.43;2.75;;;21.10;49.40;;;;;;10318418;28;20047;-57
2024/03/22 03:15:12;;;;;;;3.70;2.53;;;21.10;49.40;;;;;;10323553;28;20046;-56
2024/03/22 03:20:14;;;;;;;3.63;2.50;;;21.00;49.40;;;;;;10317943;28;20049;-56
2024/03/22 03:25:17;;;;;;;5.28;2.85;;;21.10;49.40;;;;;;10316374;28;20129;-56
2024/03/22 03:30:18;;;;;;;3.72;2.60;;;21.20;48.90;;;;;;10307029;28;20050;-56
2024/03/22 03:35:21;;;;;;;3.90;2.75;;;21.10;49.10;;;;;;10313850;28;20063;-56
2024/03/22 03:40:24;;;;;;;3.55;2.50;;;21.10;49.20;;;;;;10316459;28;20047;-59
2024/03/22 03:45:26;;;;;;;3.63;2.67;;;20.90;49.50;;;;;;10315329;28;20096;-58
2024/03/22 03:50:27;;;;;;;4.22;2.75;;;21.00;49.30;;;;;;10318889;28;20584;-56
2024/03/22 03:55:30;;;;;;;3.25;2.85;;;20.90;49.50;;;;;;10313290;28;20476;-57
2024/03/22 04:00:32;;;;;;;3.28;2.70;;;20.90;49.10;;;;;;10322232;28;20646;-58
2024/03/22 04:05:33;;;;;;;4.10;2.78;;;20.70;50.00;;;;;;10318099;28;20161;-58
2024/03/22 04:10:36;;;;;;;3.38;2.75;;;20.40;50.50;;;;;;10320156;28;20049;-57
2024/03/22 04:15:38;;;;;;;4.05;2.80;;;20.00;51.70;;;;;;10325256;28;20138;-57
2024/03/22 04:20:39;;;;;;;2.88;2.60;;;20.00;51.80;;;;;;10318342;28;20055;-58
2024/03/22 04:25:42;;;;;;;4.20;2.70;;;20.40;51.60;;;;;;10321130;28;20057;-55
2024/03/22 04:30:44;;;;;;;4.38;2.70;;;21.30;49.80;;;;;;10319610;28;20054;-55
2024/03/22 04:35:46;;;;;;;3.80;2.75;;;21.70;49.00;;;;;;10315335;28;20074;-59
2024/03/22 04:40:49;;;;;;;3.58;2.67;;;21.80;48.90;;;;;;10305451;28;20046;-55
2024/03/22 04:45:51;;;;;;;3.22;2.55;;;22.00;48.50;;;;;;10313166;28;20505;-57
2024/03/22 04:50:53;;;;;;;4.38;2.67;;;22.00;48.40;;;;;;10314324;28;20042;-55
2024/03/22 04:55:56;;;;;;;3.45;2.28;;;22.00;48.70;;;;;;10313199;28;20057;-56
2024/03/22 05:00:58;;;;;;;3.55;2.85;;;21.80;49.30;;;;;;10313680;28;20133;-59
2024/03/22 05:06:03;;;;;;;3.05;2.47;;;22.10;48.70;;;;;;10313518;28;20043;-59
2024/03/22 05:11:06;;;;;;;3.30;2.50;;;22.20;48.60;;;;;;10315042;28;20088;-56
2024/03/22 05:16:08;;;;;;;3.42;2.47;;;22.30;48.40;;;;;;10319341;28;20039;-54
2024/03/22 05:21:09;;;;;;;2.90;2.47;;;22.20;48.70;;;;;;10330323;28;20048;-56
2024/03/22 05:32:09;;;;;;;4.78;2.90;;;22.30;48.90;;;;;;10308314;28;20492;-57
2024/03/22 05:37:11;;;;;;;3.35;2.55;;;22.30;49.20;;;;;;10307625;28;20069;-58
2024/03/22 05:42:12;;;;;;;4.25;3.00;;;22.30;49.30;;;;;;10318912;28;20042;-57
2024/03/22 05:47:15;;;;;;;3.25;2.55;;;22.20;49.30;;;;;;10313165;28;20052;-56
2024/03/22 05:52:17;;;;;;;3.72;2.95;;;22.40;49.30;;;;;;10313653;28;20049;-56
2024/03/22 05:57:18;;;;;;;3.42;2.70;;;22.40;49.20;;;;;;10311402;28;20038;-56
2024/03/22 06:02:21;;;;;;;4.47;2.72;;;22.30;49.50;;;;;;10310141;28;20049;-58
2024/03/22 06:07:23;;;;;;;3.15;2.40;;;22.30;49.40;;;;;;10310044;28;21301;-54
2024/03/22 06:12:24;;;;;;;4.82;3.92;;;22.30;49.50;;;;;;10310629;28;20482;-56
2024/03/22 06:17:27;;;;;;;3.88;3.45;;;22.30;49.80;;;;;;10314071;28;20053;-56
2024/03/22 06:22:29;;;;;;;3.78;3.10;;;22.20;50.60;;;;;;10316560;28;20043;-55
2024/03/22 06:27:31;;;;;;;6.70;3.70;;;22.30;50.70;;;;;;10319872;28;20038;-58
2024/03/22 06:32:34;;;;;;;7.25;4.10;;;22.00;51.90;;;;;;10314736;28;20145;-52
2024/03/22 06:37:35;;;;;;;8.00;4.43;;;22.20;52.10;;;;;;10321177;28;20042;-59
2024/03/22 06:42:37;;;;;;;8.82;3.80;;;22.20;51.80;;;;;;10328678;28;20042;-57
2024/03/22 06:47:40;;;;;;;10.32;4.55;;;22.20;51.90;;;;;;10324472;28;20038;-58
2024/03/22 06:52:42;;;;;;;7.07;4.93;;;22.10;51.80;;;;;;10322075;28;20057;-61
2024/03/22 06:57:44;;;;;;;11.43;6.18;;;22.10;51.90;;;;;;10328737;28;20049;-57
2024/03/22 07:02:47;;;;;;;16.58;6.45;;;22.10;52.80;;;;;;10320316;28;20093;-58
2024/03/22 07:07:49;;;;;;;10.30;6.40;;;22.20;52.80;;;;;;10321194;28;20074;-58
2024/03/22 07:12:51;;;;;;;16.83;6.80;;;22.20;52.80;;;;;;10326477;28;20093;-57
2024/03/22 07:17:54;;;;;;;16.88;7.35;;;22.30;52.50;;;;;;10320108;28;20871;-55
2024/03/22 07:22:56;;;;;;;10.82;6.00;;;22.30;52.50;;;;;;10346320;28;20084;-57
2024/03/22 07:27:57;;;;;;;9.57;7.30;;;22.40;51.70;;;;;;10357541;28;20048;-60
2024/03/22 07:33:01;;;;;;;25.08;11.65;;;22.40;51.00;;;;;;10356681;28;20042;-55
2024/03/22 07:38:04;;;;;;;19.27;12.07;;;22.60;52.00;;;;;;10362999;28;20046;-58
2024/03/22 07:43:06;;;;;;;15.80;9.27;;;22.30;52.70;;;;;;10364195;28;20046;-56
2024/03/22 07:48:10;;;;;;;15.57;10.73;;;22.40;52.80;;;;;;10363125;28;20133;-56
2024/03/22 07:53:13;;;;;;;21.67;14.80;;;22.50;52.90;;;;;;10363173;28;20046;-59
2024/03/22 07:58:15;;;;;;;20.38;16.75;;;22.60;50.70;;;;;;10364262;28;20092;-58
2024/03/22 08:03:18;;;;;;;20.05;16.92;;;22.80;49.60;;;;;;10360073;28;20046;-58
2024/03/22 08:08:19;;;;;;;22.25;17.20;;;22.80;48.80;;;;;;10358245;28;20096;-55
2024/03/22 08:13:21;;;;;;;21.05;17.17;;;22.70;49.00;;;;;;10356283;28;20046;-59
2024/03/22 08:18:24;;;;;;;19.85;16.80;;;22.70;48.70;;;;;;10356001;28;20033;-54
2024/03/22 08:23:25;;;;;;;21.42;18.17;;;22.80;48.20;;;;;;10355679;28;20052;-57
2024/03/22 08:28:27;;;;;;;23.70;16.58;;;22.80;48.20;;;;;;10360896;28;20041;-57
2024/03/22 08:33:30;;;;;;;22.13;15.68;;;22.70;48.40;;;;;;10359381;28;20071;-58
2024/03/22 08:38:32;;;;;;;23.90;17.50;;;22.60;48.70;;;;;;10361823;28;20567;-56
2024/03/22 08:43:33;;;;;;;21.55;17.73;;;22.70;48.20;;;;;;10354865;28;20536;-56
2024/03/22 08:48:36;;;;;;;22.75;17.52;;;22.70;47.90;;;;;;10364553;28;20041;-58
2024/03/22 08:53:38;;;;;;;20.10;17.35;;;22.80;47.40;;;;;;10360867;28;20424;-57
2024/03/22 08:58:40;;;;;;;23.88;16.67;;;22.90;47.20;;;;;;10360443;28;20398;-57
2024/03/22 09:03:46;;;;;;;18.92;16.65;;;23.00;46.70;;;;;;10362135;28;20096;-55
2024/03/22 09:08:47;;;;;;;20.00;16.50;;;23.10;46.70;;;;;;10360254;28;20053;-56
2024/03/22 09:13:51;;;;;;;20.60;14.73;;;23.10;46.70;;;;;;10360888;28;20038;-56
2024/03/22 09:18:54;;;;;;;17.20;12.25;;;22.90;47.10;;;;;;10354743;28;20400;-62
2024/03/22 09:23:55;;;;;;;12.98;10.18;;;22.80;47.90;;;;;;10348967;28;20057;-58
2024/03/22 09:28:57;;;;;;;9.77;8.70;;;22.70;48.50;;;;;;10354957;28;20042;-58
2024/03/22 09:34:00;;;;;;;10.60;7.88;;;22.70;48.60;;;;;;10350668;28;20056;-58
2024/03/22 09:39:01;;;;;;;8.43;6.30;;;22.80;48.70;;;;;;10351947;28;20045;-59
2024/03/22 09:44:03;;;;;;;6.63;5.40;;;22.80;48.90;;;;;;10353176;28;20046;-59
2024/03/22 09:49:06;;;;;;;6.90;5.40;;;22.90;49.00;;;;;;10359282;28;20033;-57
2024/03/22 09:54:09;;;;;;;5.30;4.82;;;22.90;49.00;;;;;;10355343;28;20045;-54
2024/03/22 09:59:11;;;;;;;11.02;9.00;;;23.00;48.90;;;;;;10359621;28;20412;-55
2024/03/22 10:04:14;;;;;;;12.65;9.43;;;23.30;48.20;;;;;;10338695;28;20048;-55
2024/03/22 10:09:17;;;;;;;14.30;10.40;;;23.40;47.20;;;;;;10344846;28;20044;-56
2024/03/22 10:14:19;;;;;;;10.30;8.25;;;23.50;46.70;;;;;;10360269;28;20038;-57
2024/03/22 10:19:23;;;;;;;11.40;8.07;;;23.20;47.80;;;;;;10367190;28;20504;-58
2024/03/22 10:24:24;;;;;;;8.98;6.47;;;23.20;48.10;;;;;;10364617;28;20069;-55
2024/03/22 10:29:26;;;;;;;8.82;5.80;;;23.30;48.20;;;;;;10365136;28;20038;-57
2024/03/22 10:34:29;;;;;;;7.13;4.72;;;23.20;48.50;;;;;;10364504;28;20389;-58
2024/03/22 10:39:30;;;;;;;6.25;4.18;;;23.30;48.40;;;;;;10354855;28;20493;-58
2024/03/22 10:44:32;;;;;;;11.95;3.80;;;23.30;48.40;;;;;;10359276;28;20404;-59
2024/03/22 10:49:37;;;;;;;5.68;3.63;;;23.40;48.50;;;;;;10363419;28;20049;-57
2024/03/22 10:54:40;;;;;;;5.75;3.38;;;23.40;48.70;;;;;;10363942;28;20145;-57
2024/03/22 10:59:42;;;;;;;10.00;7.18;;;23.40;48.70;;;;;;10361188;28;20041;-61
2024/03/22 11:04:54;;;;;;;5.95;4.80;;;23.30;46.40;;;;;;10366368;28;20049;-58
2024/03/22 11:09:57;;;;;;;6.32;4.10;;;23.50;46.60;;;;;;10361281;28;20050;-61
2024/03/22 11:14:59;;;;;;;5.53;3.22;;;23.60;46.60;;;;;;10326952;28;20081;-59
2024/03/22 11:20:01;;;;;;;3.03;2.67;;;23.70;46.80;;;;;;10325320;28;20052;-59
2024/03/22 11:25:03;;;;;;;3.20;2.15;;;23.60;47.10;;;;;;10318522;28;20390;-59
2024/03/22 11:30:07;;;;;;;4.90;2.17;;;23.70;46.80;;;;;;10325555;28;20412;-54
2024/03/22 11:35:11;;;;;;;2.58;2.10;;;23.70;46.80;;;;;;10328238;28;20053;-61
2024/03/22 11:40:13;;;;;;;3.20;2.20;;;23.80;46.70;;;;;;10365841;28;20050;-58
2024/03/22 11:45:17;;;;;;;3.67;1.58;;;23.60;46.90;;;;;;10364481;28;20471;-57
2024/03/22 11:50:20;;;;;;;1.95;1.75;;;23.50;47.70;;;;;;10357599;28;20419;-59
2024/03/22 11:55:22;;;;;;;2.40;1.73;;;23.50;48.30;;;;;;10356095;28;20058;-59
2024/03/22 12:00:25;;;;;;;6.28;1.70;;;23.90;47.40;;;;;;10351486;28;20054;-58
2024/03/22 12:05:29;;;;;;;18.95;2.05;;;24.00;47.50;;;;;;10316156;28;20664;-56
2024/03/22 12:10:31;;;;;;;6.20;1.90;;;23.70;48.50;;;;;;10319679;28;20057;-59
2024/03/22 12:15:32;;;;;;;2.88;1.63;;;23.70;49.10;;;;;;10319145;28;20497;-59
2024/03/22 12:20:35;;;;;;;4.75;1.70;;;24.10;47.60;;;;;;10320690;28;20417;-56
2024/03/22 12:25:37;;;;;;;4.28;2.20;;;24.10;47.80;;;;;;10314010;28;20054;-57
2024/03/22 12:30:38;;;;;;;5.38;2.10;;;24.30;45.50;;;;;;10320702;28;20060;-59
2024/03/22 12:35:42;;;;;;;3.45;1.52;;;24.10;44.80;;;;;;10318962;28;20189;-59
2024/03/22 12:40:43;;;;;;;1.80;1.20;;;24.10;45.00;;;;;;10318445;28;20491;-57
2024/03/22 12:45:45;;;;;;;2.08;1.00;;;24.10;45.10;;;;;;10317614;28;20446;-57
2024/03/22 12:50:48;;;;;;;2.05;1.00;;;24.00;45.30;;;;;;10323352;28;20133;-56
2024/03/22 12:55:49;;;;;;;4.88;1.20;;;24.00;45.30;;;;;;10318920;28;20053;-57
2024/03/22 13:00:51;;;;;;;4.47;1.13;;;23.90;45.70;;;;;;10318607;28;20046;-59
2024/03/22 13:05:54;;;;;;;2.08;0.95;;;23.80;45.60;;;;;;10316043;28;20500;-55
2024/03/22 13:10:55;;;;;;;3.42;0.73;;;23.80;45.60;;;;;;10310373;28;20408;-56
2024/03/22 13:15:57;;;;;;;1.75;0.88;;;23.80;45.60;;;;;;10310700;28;20050;-58
2024/03/22 13:21:01;;;;;;;5.45;0.70;;;23.90;45.60;;;;;;10311992;28;20049;-56
2024/03/22 13:26:04;;;;;;;1.48;0.70;;;23.80;45.70;;;;;;10318299;28;20056;-58
2024/03/22 13:31:06;;;;;;;0.82;0.70;;;23.90;45.50;;;;;;10316668;28;20169;-56
2024/03/22 13:36:09;;;;;;;0.88;0.80;;;23.80;45.20;;;;;;10315138;28;20057;-54
2024/03/22 13:41:11;;;;;;;1.02;0.70;;;23.80;45.10;;;;;;10321848;28;20519;-57
2024/03/22 13:46:14;;;;;;;1.10;0.65;;;23.80;45.40;;;;;;10318907;28;20424;-57
2024/03/22 13:51:18;;;;;;;0.75;0.60;;;23.40;46.40;;;;;;10318426;28;20432;-58
2024/03/22 13:56:19;;;;;;;1.25;0.70;;;23.50;46.50;;;;;;10319302;28;20438;-53
2024/03/22 14:01:22;;;;;;;1.70;0.70;;;23.50;46.80;;;;;;10320394;28;20042;-55
2024/03/22 14:06:24;;;;;;;4.28;0.80;;;23.40;46.90;;;;;;10321690;28;20511;-57
2024/03/22 14:11:26;;;;;;;3.05;0.80;;;23.60;47.90;;;;;;10317179;28;20050;-59
2024/03/22 14:16:28;;;;;;;4.97;0.90;;;23.90;47.30;;;;;;10320560;28;20125;-57
2024/03/22 14:21:31;;;;;;;3.92;0.80;;;23.90;48.50;;;;;;10318321;28;20050;-59
2024/03/22 14:26:32;;;;;;;2.53;0.60;;;24.00;48.50;;;;;;10315414;28;20054;-60
2024/03/22 14:31:34;;;;;;;2.88;1.13;;;23.90;48.90;;;;;;10307996;28;20046;-58
2024/03/22 14:36:37;;;;;;;3.13;0.80;;;23.70;49.10;;;;;;10306645;28;20054;-59
2024/03/22 14:41:39;;;;;;;4.35;0.73;;;23.80;49.30;;;;;;10317209;28;20057;-59
2024/03/22 14:46:40;;;;;;;3.00;0.70;;;23.70;49.40;;;;;;10314435;28;20138;-59
2024/03/22 14:51:43;;;;;;;2.58;0.80;;;23.70;49.90;;;;;;10318027;28;20054;-59
2024/03/22 14:56:46;;;;;;;5.95;0.90;;;23.50;50.30;;;;;;10317357;28;20065;-58
2024/03/22 15:01:47;;;;;;;7.22;0.82;;;23.50;50.70;;;;;;10329024;28;20137;-57
2024/03/22 15:06:50;;;;;;;5.60;0.70;;;23.60;51.10;;;;;;10325189;28;20054;-60
2024/03/22 15:11:54;;;;;;;9.27;1.00;;;23.50;51.60;;;;;;10326506;28;20065;-59
2024/03/22 15:16:56;;;;;;;3.50;0.80;;;23.80;51.20;;;;;;10325278;28;20039;-59
2024/03/22 15:21:59;;;;;;;1.70;0.68;;;24.00;50.70;;;;;;10326612;28;20050;-60
2024/03/22 15:27:00;;;;;;;5.05;0.90;;;23.90;50.90;;;;;;10327300;28;21111;-58
2024/03/22 15:32:02;;;;;;;4.97;0.70;;;23.80;51.20;;;;;;10327962;28;20064;-61
2024/03/22 15:37:05;;;;;;;5.80;0.80;;;23.80;51.10;;;;;;10322160;28;20038;-60
2024/03/22 15:42:07;;;;;;;11.48;2.10;;;23.70;51.20;;;;;;10320087;28;20050;-58
2024/03/22 15:47:08;;;;;;;8.52;1.52;;;23.70;51.90;;;;;;10322633;28;20042;-60
2024/03/22 15:52:11;;;;;;;10.90;1.08;;;23.60;52.60;;;;;;10325112;28;20093;-60
2024/03/22 15:57:13;;;;;;;4.28;1.02;;;23.60;52.20;;;;;;10319495;28;20137;-58
2024/03/22 16:02:15;;;;;;;17.92;1.63;;;23.50;52.40;;;;;;10323443;28;20416;-59
2024/03/22 16:07:17;;;;;;;8.75;1.13;;;23.30;52.60;;;;;;10321522;28;20568;-59
2024/03/22 16:12:19;;;;;;;4.70;1.13;;;23.50;52.10;;;;;;10325340;28;20496;-61
2024/03/22 16:17:21;;;;;;;4.28;0.80;;;23.60;51.90;;;;;;10323710;28;20420;-60
2024/03/22 16:22:24;;;;;;;3.88;0.90;;;23.70;51.90;;;;;;10325149;28;20046;-60
2024/03/22 16:27:25;;;;;;;3.47;0.88;;;23.60;51.90;;;;;;10318077;28;20165;-60
2024/03/22 16:32:27;;;;;;;4.50;1.25;;;23.80;51.70;;;;;;10311846;28;20057;-60
2024/03/22 16:37:30;;;;;;;10.52;1.20;;;23.70;51.70;;;;;;10321501;28;20054;-60
2024/03/22 16:42:31;;;;;;;3.83;1.23;;;23.70;51.80;;;;;;10320065;28;20046;-58
2024/03/22 16:47:33;;;;;;;7.63;1.38;;;23.80;51.10;;;;;;10321070;28;20072;-58
2024/03/22 16:52:36;;;;;;;5.07;1.52;;;23.70;51.30;;;;;;10314846;28;20049;-59
2024/03/22 16:57:38;;;;;;;5.20;1.23;;;23.80;51.20;;;;;;10320032;28;20058;-60
2024/03/22 17:02:40;;;;;;;3.97;1.10;;;23.80;51.20;;;;;;10316889;28;20054;-61
2024/03/22 17:07:42;;;;;;;3.42;1.10;;;23.80;51.60;;;;;;10335506;28;20046;-60
2024/03/22 17:12:44;;;;;;;5.30;1.17;;;24.00;51.20;;;;;;10357014;28;20050;-61
2024/03/22 17:17:46;;;;;;;4.55;1.15;;;24.00;50.90;;;;;;10358454;28;20099;-59
2024/03/22 17:22:49;;;;;;;3.92;1.08;;;23.90;51.30;;;;;;10340166;28;20587;-58
2024/03/22 17:27:50;;;;;;;6.13;1.20;;;23.80;51.40;;;;;;10321537;28;20138;-62
2024/03/22 17:32:53;;;;;;;3.67;1.20;;;23.80;51.20;;;;;;10321532;28;20141;-59
2024/03/22 17:37:57;;;;;;;10.20;1.20;;;23.80;51.50;;;;;;10311268;28;20138;-58
2024/03/22 17:42:58;;;;;;;6.95;1.23;;;23.80;52.30;;;;;;10319851;28;20052;-60
2024/03/22 17:48:00;;;;;;;6.38;1.10;;;23.90;52.50;;;;;;10319821;28;20053;-58
2024/03/22 17:53:03;;;;;;;5.55;1.10;;;24.00;52.20;;;;;;10317103;28;20042;-56
2024/03/22 17:58:05;;;;;;;4.68;1.25;;;24.00;53.20;;;;;;10319058;28;20042;-57
2024/03/22 18:03:06;;;;;;;9.77;1.48;;;24.00;52.70;;;;;;10318858;28;20062;-60
2024/03/22 18:08:09;;;;;;;5.80;1.08;;;24.00;53.60;;;;;;10321444;28;20070;-61
2024/03/22 18:13:11;;;;;;;7.90;1.40;;;24.00;54.50;;;;;;10323701;28;20085;-60
2024/03/22 18:18:12;;;;;;;8.75;1.23;;;24.10;54.60;;;;;;10322886;28;20047;-59
2024/03/22 18:23:17;;;;;;;7.03;1.60;;;24.10;55.30;;;;;;10318160;28;20060;-59
2024/03/22 18:28:19;;;;;;;9.73;1.50;;;24.30;55.20;;;;;;10316275;28;20046;-60
2024/03/22 18:33:21;;;;;;;7.97;1.60;;;24.20;55.70;;;;;;10319975;28;20070;-60
2024/03/22 18:38:24;;;;;;;11.30;1.73;;;24.30;56.10;;;;;;10327681;28;20077;-58
2024/03/22 18:43:28;;;;;;;3.67;1.30;;;24.30;56.40;;;;;;10322726;28;20137;-60
2024/03/22 18:48:32;;;;;;;9.60;1.30;;;24.30;56.50;;;;;;10331235;28;20046;-62
2024/03/22 18:53:35;;;;;;;7.32;1.58;;;24.40;56.40;;;;;;10331167;28;20097;-59
2024/03/22 18:58:36;;;;;;;9.60;1.40;;;24.40;55.90;;;;;;10335261;28;20425;-61
2024/03/22 19:03:38;;;;;;;11.40;1.20;;;24.50;55.60;;;;;;10326759;28;20070;-57
2024/03/22 19:08:41;;;;;;;5.18;1.08;;;24.40;55.10;;;;;;10332571;28;20054;-56
2024/03/22 19:13:43;;;;;;;7.20;1.30;;;24.50;54.60;;;;;;10331270;28;20053;-54
2024/03/22 19:18:44;;;;;;;7.20;1.23;;;24.50;54.50;;;;;;10325440;28;20497;-57
2024/03/22 19:23:47;;;;;;;3.10;1.00;;;24.70;54.20;;;;;;10334638;28;20399;-61
2024/03/22 19:28:49;;;;;;;4.88;1.42;;;24.80;53.60;;;;;;10330833;28;20050;-60
2024/03/22 19:33:51;;;;;;;2.97;1.20;;;24.70;53.80;;;;;;10319332;28;20138;-60
2024/03/22 19:38:54;;;;;;;2.10;0.80;;;24.50;53.50;;;;;;10328884;28;20137;-59
2024/03/22 19:43:55;;;;;;;5.00;0.90;;;24.40;53.50;;;;;;10324823;28;20047;-59
2024/03/22 19:48:57;;;;;;;2.55;0.90;;;24.40;53.40;;;;;;10326546;28;20049;-59
2024/03/22 19:54:00;;;;;;;7.88;1.00;;;24.40;53.70;;;;;;10323679;28;20074;-62
2024/03/22 19:59:01;;;;;;;11.88;1.25;;;24.50;53.60;;;;;;10319337;28;20057;-58
2024/03/22 20:04:04;;;;;;;8.68;1.10;;;24.50;53.70;;;;;;10322582;28;20054;-60
2024/03/22 20:09:08;;;;;;;7.65;1.10;;;24.70;53.10;;;;;;10324937;28;20060;-59
2024/03/22 20:14:11;;;;;;;4.57;1.20;;;24.50;53.50;;;;;;10323963;28;20046;-56
2024/03/22 20:19:12;;;;;;;4.78;1.10;;;24.40;53.40;;;;;;10323299;28;20544;-56
2024/03/22 20:24:15;;;;;;;5.22;1.00;;;24.30;53.20;;;;;;10321623;28;20489;-61
2024/03/22 20:29:17;;;;;;;5.35;0.95;;;23.90;53.70;;;;;;10321250;28;20738;-57
2024/03/22 20:34:18;;;;;;;3.75;1.00;;;23.80;53.90;;;;;;10321773;28;20416;-60
2024/03/22 20:39:24;;;;;;;4.32;1.00;;;23.30;54.70;;;;;;10316249;28;20409;-59
2024/03/22 20:44:29;;;;;;;5.15;1.15;;;23.10;55.00;;;;;;10316530;28;20062;-61
2024/03/22 20:49:34;;;;;;;4.03;1.10;;;23.10;55.10;;;;;;10318915;28;20042;-59
2024/03/22 20:54:39;;;;;;;1.88;0.93;;;22.90;55.20;;;;;;10315673;28;20541;-58
2024/03/22 20:59:44;;;;;;;3.63;1.05;;;22.80;55.30;;;;;;10318800;28;20046;-59
2024/03/22 21:04:50;;;;;;;9.50;0.88;;;22.70;55.30;;;;;;10318685;28;20417;-61
2024/03/22 21:09:55;;;;;;;3.92;0.90;;;22.70;55.40;;;;;;10317106;28;20134;-57
2024/03/22 21:15:00;;;;;;;5.07;1.13;;;22.50;55.70;;;;;;10322310;28;20420;-59
2024/03/22 21:20:07;;;;;;;2.60;0.70;;;22.60;55.20;;;;;;10320502;28;20078;-55
2024/03/22 21:25:12;;;;;;;3.92;0.80;;;22.40;55.30;;;;;;10358824;28;20058;-58
2024/03/22 21:30:19;;;;;;;1.90;0.80;;;22.60;54.80;;;;;;10314521;28;20046;-60
2024/03/22 21:35:24;;;;;;;2.95;0.80;;;22.80;54.30;;;;;;10356584;28;20050;-58
2024/03/22 21:40:29;;;;;;;1.67;0.80;;;23.00;53.50;;;;;;10358309;28;20506;-59
2024/03/22 21:45:35;;;;;;;2.13;0.85;;;22.70;54.10;;;;;;10359272;28;20072;-57
2024/03/22 21:50:40;;;;;;;1.77;0.70;;;22.70;53.90;;;;;;10360987;28;20060;-60
2024/03/22 21:55:45;;;;;;;4.93;1.30;;;22.90;53.10;;;;;;10362529;28;20056;-59
2024/03/22 22:00:50;;;;;;;1.90;0.90;;;23.00;52.80;;;;;;10359554;28;20084;-57
2024/03/22 22:05:55;;;;;;;1.10;0.60;;;22.90;52.60;;;;;;10365796;28;20132;-60
2024/03/22 22:11:01;;;;;;;1.85;0.90;;;22.80;52.60;;;;;;10365773;28;20526;-60
2024/03/22 22:16:06;;;;;;;1.85;0.80;;;23.20;51.80;;;;;;10371987;28;20117;-59
2024/03/22 22:21:11;;;;;;;2.38;0.90;;;22.90;52.40;;;;;;10372898;28;20049;-59
2024/03/22 22:26:16;;;;;;;2.20;0.98;;;22.90;52.30;;;;;;10377663;28;20045;-60
2024/03/22 22:31:21;;;;;;;2.05;0.70;;;22.80;52.40;;;;;;10373898;28;20481;-59
2024/03/22 22:36:27;;;;;;;2.00;0.90;;;22.80;52.40;;;;;;10373100;28;20048;-60
2024/03/22 22:41:32;;;;;;;1.88;0.90;;;22.60;52.50;;;;;;10367563;28;20054;-59
2024/03/22 22:46:37;;;;;;;2.42;0.90;;;22.60;52.30;;;;;;10371465;28;20046;-58
2024/03/22 22:51:42;;;;;;;3.33;1.17;;;22.80;52.00;;;;;;10370943;28;20481;-59
2024/03/22 22:56:47;;;;;;;4.05;1.10;;;23.00;51.10;;;;;;10372843;28;20064;-59
2024/03/22 23:01:52;;;;;;;1.40;0.88;;;23.10;50.80;;;;;;10369039;28;20132;-60
2024/03/22 23:06:58;;;;;;;2.25;1.00;;;23.20;50.70;;;;;;10373190;28;20852;-58
2024/03/22 23:12:03;;;;;;;2.75;0.88;;;23.10;50.60;;;;;;10371012;28;20072;-60
2024/03/22 23:17:08;;;;;;;4.05;0.90;;;23.00;50.70;;;;;;10371800;28;20046;-58
2024/03/22 23:22:13;;;;;;;3.22;0.70;;;22.90;51.00;;;;;;10357013;28;20038;-61
2024/03/22 23:27:18;;;;;;;1.85;0.90;;;22.90;50.80;;;;;;10360608;28;20046;-61
2024/03/22 23:32:24;;;;;;;2.55;0.77;;;22.80;51.20;;;;;;10370637;28;20046;-60
2024/03/22 23:37:29;;;;;;;3.42;0.90;;;22.70;51.30;;;;;;10367113;28;20195;-59
2024/03/22 23:42:34;;;;;;;1.17;0.80;;;22.80;51.10;;;;;;10373037;28;20040;-59
2024/03/22 23:47:39;;;;;;;2.72;1.08;;;22.70;51.10;;;;;;10365589;28;20056;-59
2024/03/22 23:52:44;;;;;;;1.52;0.60;;;22.70;51.00;;;;;;10364664;28;20514;-60
2024/03/22 23:57:50;;;;;;;1.88;0.80;;;22.50;51.40;;;;;;10365238;28;20046;-60
